sensor_id;sensor_type;location;lat;lon;timestamp;pressure;altitude;pressure_sealevel;temperature;humidity
48015;BME280;33780;51.034;7.120;2023-01-08T00:02:12;99794.13;;;11.54;70.83
48015;BME280;33780;51.034;7.120;2023-01-08T00:04:37;99790.59;;;11.54;71.22
48015;BME280;33780;51.034;7.120;2023-01-08T00:07:03;99796.97;;;11.53;71.23
48015;BME280;33780;51.034;7.120;2023-01-08T00:09:28;99795.97;;;11.54;71.05
48015;BME280;33780;51.034;7.120;2023-01-08T00:11:53;99793.28;;;11.54;71.20
48015;BME280;33780;51.034;7.120;2023-01-08T00:14:18;99801.16;;;11.55;71.01
48015;BME280;33780;51.034;7.120;2023-01-08T00:16:44;99804.69;;;11.56;71.44
48015;BME280;33780;51.034;7.120;2023-01-08T00:19:11;99803.69;;;11.57;71.15
48015;BME280;33780;51.034;7.120;2023-01-08T00:21:36;99802.84;;;11.56;71.16
48015;BME280;33780;51.034;7.120;2023-01-08T00:24:01;99786.75;;;11.56;71.51
48015;BME280;33780;51.034;7.120;2023-01-08T00:26:27;99796.63;;;11.56;71.48
48015;BME280;33780;51.034;7.120;2023-01-08T00:28:52;99793.97;;;11.56;71.38
48015;BME280;33780;51.034;7.120;2023-01-08T00:31:17;99789.44;;;11.56;71.46
48015;BME280;33780;51.034;7.120;2023-01-08T00:33:43;99781.56;;;11.55;71.71
48015;BME280;33780;51.034;7.120;2023-01-08T00:36:14;99782.41;;;11.55;71.53
48015;BME280;33780;51.034;7.120;2023-01-08T00:38:40;99772.69;;;11.54;71.54
48015;BME280;33780;51.034;7.120;2023-01-08T00:41:06;99770.84;;;11.55;71.98
48015;BME280;33780;51.034;7.120;2023-01-08T00:43:32;99764.66;;;11.54;71.81
48015;BME280;33780;51.034;7.120;2023-01-08T00:45:57;99767.50;;;11.53;71.44
48015;BME280;33780;51.034;7.120;2023-01-08T00:48:23;99764.81;;;11.53;72.11
48015;BME280;33780;51.034;7.120;2023-01-08T00:50:50;99762.13;;;11.53;71.91
48015;BME280;33780;51.034;7.120;2023-01-08T00:53:16;99766.66;;;11.52;71.98
48015;BME280;33780;51.034;7.120;2023-01-08T00:55:42;99760.28;;;11.53;72.02
48015;BME280;33780;51.034;7.120;2023-01-08T00:58:07;99750.41;;;11.54;72.29
48015;BME280;33780;51.034;7.120;2023-01-08T01:00:32;99756.59;;;11.54;72.31
48015;BME280;33780;51.034;7.120;2023-01-08T01:02:58;99760.97;;;11.55;72.16
48015;BME280;33780;51.034;7.120;2023-01-08T01:05:23;99755.59;;;11.55;72.46
48015;BME280;33780;51.034;7.120;2023-01-08T01:07:51;99748.41;;;11.56;72.28
48015;BME280;33780;51.034;7.120;2023-01-08T01:10:19;99750.25;;;11.55;72.21
48015;BME280;33780;51.034;7.120;2023-01-08T01:12:47;99745.72;;;11.56;72.12
48015;BME280;33780;51.034;7.120;2023-01-08T01:15:15;99741.22;;;11.56;72.52
48015;BME280;33780;51.034;7.120;2023-01-08T01:17:48;99749.25;;;11.56;72.25
48015;BME280;33780;51.034;7.120;2023-01-08T01:20:15;99747.41;;;11.57;72.41
48015;BME280;33780;51.034;7.120;2023-01-08T01:22:41;99754.44;;;11.58;72.32
48015;BME280;33780;51.034;7.120;2023-01-08T01:25:07;99754.44;;;11.58;72.65
48015;BME280;33780;51.034;7.120;2023-01-08T01:27:33;99750.75;;;11.59;72.56
48015;BME280;33780;51.034;7.120;2023-01-08T01:29:58;99743.38;;;11.61;72.70
48015;BME280;33780;51.034;7.120;2023-01-08T01:32:23;99749.75;;;11.60;72.35
48015;BME280;33780;51.034;7.120;2023-01-08T01:34:49;99750.59;;;11.60;72.56
48015;BME280;33780;51.034;7.120;2023-01-08T01:37:14;99756.78;;;11.61;73.03
48015;BME280;33780;51.034;7.120;2023-01-08T01:39:41;99762.16;;;11.61;72.94
48015;BME280;33780;51.034;7.120;2023-01-08T01:42:15;99754.94;;;11.61;72.65
48015;BME280;33780;51.034;7.120;2023-01-08T01:44:59;99753.94;;;11.62;72.90
48015;BME280;33780;51.034;7.120;2023-01-08T01:50:00;99750.44;;;11.62;73.00
48015;BME280;33780;51.034;7.120;2023-01-08T01:52:29;99752.09;;;11.63;73.08
48015;BME280;33780;51.034;7.120;2023-01-08T01:54:56;99755.78;;;11.62;73.01
48015;BME280;33780;51.034;7.120;2023-01-08T01:57:23;99756.63;;;11.62;73.34
48015;BME280;33780;51.034;7.120;2023-01-08T01:59:49;99753.09;;;11.62;73.32
48015;BME280;33780;51.034;7.120;2023-01-08T02:02:14;99741.38;;;11.63;73.23
48015;BME280;33780;51.034;7.120;2023-01-08T02:04:40;99743.22;;;11.62;73.38
48015;BME280;33780;51.034;7.120;2023-01-08T02:07:20;99734.34;;;11.62;73.22
48015;BME280;33780;51.034;7.120;2023-01-08T02:09:55;99730.81;;;11.61;73.82
48015;BME280;33780;51.034;7.120;2023-01-08T02:18:12;99733.16;;;11.56;74.30
48015;BME280;33780;51.034;7.120;2023-01-08T02:20:49;99723.44;;;11.55;74.42
48015;BME280;33780;51.034;7.120;2023-01-08T02:28:33;99711.22;;;11.53;75.06
48015;BME280;33780;51.034;7.120;2023-01-08T02:31:00;99699.00;;;11.50;75.56
48015;BME280;33780;51.034;7.120;2023-01-08T02:33:28;99696.31;;;11.50;75.54
48015;BME280;33780;51.034;7.120;2023-01-08T02:36:14;99697.44;;;11.47;75.52
48015;BME280;33780;51.034;7.120;2023-01-08T02:41:24;99681.72;;;11.44;76.03
48015;BME280;33780;51.034;7.120;2023-01-08T02:43:56;99680.03;;;11.43;75.84
48015;BME280;33780;51.034;7.120;2023-01-08T02:46:25;99665.97;;;11.41;77.13
48015;BME280;33780;51.034;7.120;2023-01-08T02:48:59;99668.81;;;11.40;76.58
48015;BME280;33780;51.034;7.120;2023-01-08T02:51:30;99665.28;;;11.39;76.90
48015;BME280;33780;51.034;7.120;2023-01-08T02:54:01;99660.94;;;11.38;77.04
48015;BME280;33780;51.034;7.120;2023-01-08T02:56:30;99650.38;;;11.37;76.72
48015;BME280;33780;51.034;7.120;2023-01-08T02:58:58;99649.56;;;11.36;77.23
48015;BME280;33780;51.034;7.120;2023-01-08T03:01:26;99647.88;;;11.35;77.09
48015;BME280;33780;51.034;7.120;2023-01-08T03:03:56;99646.03;;;11.36;77.54
48015;BME280;33780;51.034;7.120;2023-01-08T03:06:23;99640.84;;;11.34;77.48
48015;BME280;33780;51.034;7.120;2023-01-08T03:08:52;99642.69;;;11.34;77.79
48015;BME280;33780;51.034;7.120;2023-01-08T03:11:20;99638.31;;;11.33;77.71
48015;BME280;33780;51.034;7.120;2023-01-08T03:14:45;99642.84;;;11.32;77.41
48015;BME280;33780;51.034;7.120;2023-01-08T03:16:57;99643.84;;;11.31;78.08
48015;BME280;33780;51.034;7.120;2023-01-08T03:19:30;99637.63;;;11.31;77.97
48015;BME280;33780;51.034;7.120;2023-01-08T03:21:58;99639.47;;;11.30;78.57
48015;BME280;33780;51.034;7.120;2023-01-08T03:24:28;99637.78;;;11.29;78.07
48015;BME280;33780;51.034;7.120;2023-01-08T03:26:57;99635.13;;;11.29;78.23
48015;BME280;33780;51.034;7.120;2023-01-08T03:29:24;99632.59;;;11.28;78.28
48015;BME280;33780;51.034;7.120;2023-01-08T03:32:01;99627.41;;;11.26;78.65
48015;BME280;33780;51.034;7.120;2023-01-08T03:34:28;99630.94;;;11.27;78.40
48015;BME280;33780;51.034;7.120;2023-01-08T03:36:58;99636.28;;;11.27;78.57
48015;BME280;33780;51.034;7.120;2023-01-08T03:39:29;99636.28;;;11.27;79.00
48015;BME280;33780;51.034;7.120;2023-01-08T03:42:00;99628.41;;;11.25;78.75
48015;BME280;33780;51.034;7.120;2023-01-08T03:44:29;99617.69;;;11.25;78.91
48015;BME280;33780;51.034;7.120;2023-01-08T03:46:55;99636.44;;;11.25;78.73
48015;BME280;33780;51.034;7.120;2023-01-08T03:49:24;99629.41;;;11.24;78.97
48015;BME280;33780;51.034;7.120;2023-01-08T03:51:50;99629.41;;;11.24;79.24
48015;BME280;33780;51.034;7.120;2023-01-08T03:54:18;99626.75;;;11.24;79.33
48015;BME280;33780;51.034;7.120;2023-01-08T03:56:44;99625.06;;;11.23;79.06
48015;BME280;33780;51.034;7.120;2023-01-08T03:59:13;99627.75;;;11.23;79.43
48015;BME280;33780;51.034;7.120;2023-01-08T04:01:38;99622.38;;;11.23;79.27
48015;BME280;33780;51.034;7.120;2023-01-08T04:04:05;99616.19;;;11.23;79.32
48015;BME280;33780;51.034;7.120;2023-01-08T04:06:30;99616.19;;;11.23;79.47
48015;BME280;33780;51.034;7.120;2023-01-08T04:08:55;99618.03;;;11.22;79.64
48015;BME280;33780;51.034;7.120;2023-01-08T04:11:21;99618.19;;;11.20;79.36
48015;BME280;33780;51.034;7.120;2023-01-08T04:13:46;99616.34;;;11.21;79.69
48015;BME280;33780;51.034;7.120;2023-01-08T04:16:11;99624.38;;;11.21;79.74
48015;BME280;33780;51.034;7.120;2023-01-08T04:18:37;99608.50;;;11.19;79.69
48015;BME280;33780;51.034;7.120;2023-01-08T04:21:02;99600.63;;;11.18;80.07
48015;BME280;33780;51.034;7.120;2023-01-08T04:23:27;99600.47;;;11.19;79.93
48015;BME280;33780;51.034;7.120;2023-01-08T04:25:53;99596.94;;;11.19;79.97
48015;BME280;33780;51.034;7.120;2023-01-08T04:28:21;99600.63;;;11.18;80.37
48015;BME280;33780;51.034;7.120;2023-01-08T04:30:50;99586.22;;;11.19;80.22
48015;BME280;33780;51.034;7.120;2023-01-08T04:33:16;99591.59;;;11.19;80.32
48015;BME280;33780;51.034;7.120;2023-01-08T04:35:43;99589.75;;;11.19;80.36
48015;BME280;33780;51.034;7.120;2023-01-08T04:38:12;99589.75;;;11.19;80.53
48015;BME280;33780;51.034;7.120;2023-01-08T04:40:37;99585.22;;;11.20;80.65
48015;BME280;33780;51.034;7.120;2023-01-08T04:43:02;99587.91;;;11.20;80.51
48015;BME280;33780;51.034;7.120;2023-01-08T04:45:28;99586.22;;;11.19;80.59
48015;BME280;33780;51.034;7.120;2023-01-08T04:47:57;99594.25;;;11.19;80.42
48015;BME280;33780;51.034;7.120;2023-01-08T04:50:24;99588.06;;;11.18;80.37
48015;BME280;33780;51.034;7.120;2023-01-08T04:52:49;99589.91;;;11.18;80.79
48015;BME280;33780;51.034;7.120;2023-01-08T04:55:18;99583.72;;;11.17;80.54
48015;BME280;33780;51.034;7.120;2023-01-08T04:57:43;99590.06;;;11.16;80.55
48015;BME280;33780;51.034;7.120;2023-01-08T05:00:09;99586.41;;;11.17;80.88
48015;BME280;33780;51.034;7.120;2023-01-08T05:02:34;99581.03;;;11.17;81.01
48015;BME280;33780;51.034;7.120;2023-01-08T05:05:00;99576.69;;;11.16;80.65
48015;BME280;33780;51.034;7.120;2023-01-08T05:07:25;99572.16;;;11.17;80.62
48015;BME280;33780;51.034;7.120;2023-01-08T05:09:51;99579.38;;;11.16;81.00
48015;BME280;33780;51.034;7.120;2023-01-08T05:12:16;99570.31;;;11.17;80.80
48015;BME280;33780;51.034;7.120;2023-01-08T05:14:42;99580.19;;;11.17;81.16
48015;BME280;33780;51.034;7.120;2023-01-08T05:17:07;99572.16;;;11.17;80.97
48015;BME280;33780;51.034;7.120;2023-01-08T05:19:32;99569.50;;;11.17;80.84
48015;BME280;33780;51.034;7.120;2023-01-08T05:21:57;99574.84;;;11.17;81.12
48015;BME280;33780;51.034;7.120;2023-01-08T05:24:23;99558.09;;;11.15;81.23
48015;BME280;33780;51.034;7.120;2023-01-08T05:26:48;99555.25;;;11.16;80.89
48015;BME280;33780;51.034;7.120;2023-01-08T05:29:13;99551.91;;;11.14;81.05
48015;BME280;33780;51.034;7.120;2023-01-08T05:31:38;99550.25;;;11.13;81.02
48015;BME280;33780;51.034;7.120;2023-01-08T05:34:04;99558.28;;;11.13;81.10
48015;BME280;33780;51.034;7.120;2023-01-08T05:36:29;99550.38;;;11.12;81.43
48015;BME280;33780;51.034;7.120;2023-01-08T05:38:55;99560.41;;;11.10;80.94
48015;BME280;33780;51.034;7.120;2023-01-08T05:41:20;99562.94;;;11.11;80.88
48015;BME280;33780;51.034;7.120;2023-01-08T05:43:45;99571.97;;;11.10;81.03
48015;BME280;33780;51.034;7.120;2023-01-08T05:46:11;99565.78;;;11.10;80.83
48015;BME280;33780;51.034;7.120;2023-01-08T05:48:36;99564.94;;;11.09;81.23
48015;BME280;33780;51.034;7.120;2023-01-08T05:51:02;99567.59;;;11.09;81.16
48015;BME280;33780;51.034;7.120;2023-01-08T05:53:27;99567.59;;;11.09;80.93
48015;BME280;33780;51.034;7.120;2023-01-08T05:56:03;99566.09;;;11.07;81.06
48015;BME280;33780;51.034;7.120;2023-01-08T05:58:29;99559.91;;;11.06;81.15
48015;BME280;33780;51.034;7.120;2023-01-08T06:01:01;99560.91;;;11.05;80.96
48015;BME280;33780;51.034;7.120;2023-01-08T06:03:27;99564.59;;;11.04;80.82
48015;BME280;33780;51.034;7.120;2023-01-08T06:05:52;99564.59;;;11.04;80.76
48015;BME280;33780;51.034;7.120;2023-01-08T06:08:17;99561.25;;;11.02;80.84
48015;BME280;33780;51.034;7.120;2023-01-08T06:10:42;99554.22;;;11.01;81.09
48015;BME280;33780;51.034;7.120;2023-01-08T06:13:08;99560.41;;;11.02;81.14
48015;BME280;33780;51.034;7.120;2023-01-08T06:15:34;99563.91;;;11.02;80.77
48015;BME280;33780;51.034;7.120;2023-01-08T06:18:03;99556.91;;;11.01;81.06
48015;BME280;33780;51.034;7.120;2023-01-08T06:20:28;99555.22;;;11.00;81.15
48015;BME280;33780;51.034;7.120;2023-01-08T06:22:54;99556.06;;;11.01;80.86
48015;BME280;33780;51.034;7.120;2023-01-08T06:25:19;99549.88;;;11.00;80.82
48015;BME280;33780;51.034;7.120;2023-01-08T06:27:50;99549.19;;;10.98;80.89
48015;BME280;33780;51.034;7.120;2023-01-08T06:30:15;99558.06;;;10.99;80.74
48015;BME280;33780;51.034;7.120;2023-01-08T06:32:40;99557.06;;;11.00;80.66
48015;BME280;33780;51.034;7.120;2023-01-08T06:35:06;99565.09;;;11.00;80.50
48015;BME280;33780;51.034;7.120;2023-01-08T06:37:31;99562.41;;;11.00;80.71
48015;BME280;33780;51.034;7.120;2023-01-08T06:39:56;99555.56;;;10.97;80.73
48015;BME280;33780;51.034;7.120;2023-01-08T06:42:21;99552.03;;;10.97;80.41
48015;BME280;33780;51.034;7.120;2023-01-08T06:44:47;99554.72;;;10.97;80.62
48015;BME280;33780;51.034;7.120;2023-01-08T06:47:12;99566.44;;;10.96;80.35
48015;BME280;33780;51.034;7.120;2023-01-08T06:49:37;99564.59;;;10.96;80.92
48015;BME280;33780;51.034;7.120;2023-01-08T06:52:03;99560.22;;;10.95;80.20
48015;BME280;33780;51.034;7.120;2023-01-08T06:54:28;99559.53;;;10.93;80.08
48015;BME280;33780;51.034;7.120;2023-01-08T06:56:53;99556.19;;;10.91;80.00
48015;BME280;33780;51.034;7.120;2023-01-08T06:59:18;99558.84;;;10.91;80.61
48015;BME280;33780;51.034;7.120;2023-01-08T07:01:44;99557.19;;;10.90;80.30
48015;BME280;33780;51.034;7.120;2023-01-08T07:04:09;99561.53;;;10.91;80.35
48015;BME280;33780;51.034;7.120;2023-01-08T07:06:34;99564.22;;;10.91;80.48
48015;BME280;33780;51.034;7.120;2023-01-08T07:08:59;99559.84;;;10.90;80.30
48015;BME280;33780;51.034;7.120;2023-01-08T07:11:25;99558.03;;;10.90;80.48
48015;BME280;33780;51.034;7.120;2023-01-08T07:13:50;99559.84;;;10.90;80.51
48015;BME280;33780;51.034;7.120;2023-01-08T07:16:16;99570.41;;;10.92;80.09
48015;BME280;33780;51.034;7.120;2023-01-08T07:18:41;99579.44;;;10.90;80.30
48015;BME280;33780;51.034;7.120;2023-01-08T07:21:07;99583.13;;;10.89;80.16
48015;BME280;33780;51.034;7.120;2023-01-08T07:23:33;99635.66;;;10.90;80.07
48015;BME280;33780;51.034;7.120;2023-01-08T07:26:03;99639.66;;;10.86;80.11
48015;BME280;33780;51.034;7.120;2023-01-08T07:28:29;99623.91;;;10.83;80.08
48015;BME280;33780;51.034;7.120;2023-01-08T07:30:55;99623.91;;;10.83;79.93
48015;BME280;33780;51.034;7.120;2023-01-08T07:33:20;99624.25;;;10.80;79.50
48015;BME280;33780;51.034;7.120;2023-01-08T07:35:52;99625.41;;;10.78;79.28
48015;BME280;33780;51.034;7.120;2023-01-08T07:38:18;99623.00;;;10.75;79.08
48015;BME280;33780;51.034;7.120;2023-01-08T07:40:43;99624.19;;;10.72;79.12
48015;BME280;33780;51.034;7.120;2023-01-08T07:43:09;99618.00;;;10.72;79.02
48015;BME280;33780;51.034;7.120;2023-01-08T07:45:36;99621.50;;;10.72;78.90
48015;BME280;33780;51.034;7.120;2023-01-08T07:48:02;99619.16;;;10.69;78.94
48015;BME280;33780;51.034;7.120;2023-01-08T07:50:27;99612.13;;;10.68;79.01
48015;BME280;33780;51.034;7.120;2023-01-08T07:53:02;99616.63;;;10.68;78.73
48015;BME280;33780;51.034;7.120;2023-01-08T07:55:29;99609.63;;;10.67;79.09
48015;BME280;33780;51.034;7.120;2023-01-08T07:57:55;99612.28;;;10.67;79.16
48015;BME280;33780;51.034;7.120;2023-01-08T08:00:20;99607.09;;;10.65;79.16
48015;BME280;33780;51.034;7.120;2023-01-08T08:02:46;99615.28;;;10.64;79.38
48015;BME280;33780;51.034;7.120;2023-01-08T08:05:12;99611.78;;;10.63;79.39
48015;BME280;33780;51.034;7.120;2023-01-08T08:07:37;99606.59;;;10.62;79.41
48015;BME280;33780;51.034;7.120;2023-01-08T08:10:03;99604.91;;;10.61;79.67
48015;BME280;33780;51.034;7.120;2023-01-08T08:12:29;99604.91;;;10.61;79.43
48015;BME280;33780;51.034;7.120;2023-01-08T08:14:54;99606.03;;;10.58;80.04
48015;BME280;33780;51.034;7.120;2023-01-08T08:17:20;99600.00;;;10.56;80.12
48015;BME280;33780;51.034;7.120;2023-01-08T08:19:45;99606.38;;;10.55;80.34
48015;BME280;33780;51.034;7.120;2023-01-08T08:22:11;99606.53;;;10.53;80.31
48015;BME280;33780;51.034;7.120;2023-01-08T08:24:37;99604.84;;;10.52;80.72
48015;BME280;33780;51.034;7.120;2023-01-08T08:27:02;99608.53;;;10.51;80.33
48015;BME280;33780;51.034;7.120;2023-01-08T08:29:28;99600.66;;;10.50;80.26
48015;BME280;33780;51.034;7.120;2023-01-08T08:31:53;99596.31;;;10.49;80.39
48015;BME280;33780;51.034;7.120;2023-01-08T08:34:18;99591.97;;;10.48;80.45
48015;BME280;33780;51.034;7.120;2023-01-08T08:36:46;99590.13;;;10.48;80.34
48015;BME280;33780;51.034;7.120;2023-01-08T08:39:12;99592.97;;;10.47;80.79
48015;BME280;33780;51.034;7.120;2023-01-08T08:41:37;99591.28;;;10.46;80.47
48015;BME280;33780;51.034;7.120;2023-01-08T08:44:02;99583.25;;;10.46;80.66
48015;BME280;33780;51.034;7.120;2023-01-08T08:46:28;99579.75;;;10.45;80.46
48015;BME280;33780;51.034;7.120;2023-01-08T08:48:54;99585.94;;;10.46;80.69
48015;BME280;33780;51.034;7.120;2023-01-08T08:51:19;99578.91;;;10.45;80.65
48015;BME280;33780;51.034;7.120;2023-01-08T08:53:44;99580.75;;;10.44;80.85
48015;BME280;33780;51.034;7.120;2023-01-08T08:56:10;99586.94;;;10.45;80.61
48015;BME280;33780;51.034;7.120;2023-01-08T08:58:35;99579.91;;;10.44;80.71
48015;BME280;33780;51.034;7.120;2023-01-08T09:01:02;99577.22;;;10.44;80.75
48015;BME280;33780;51.034;7.120;2023-01-08T09:03:28;99576.22;;;10.45;81.28
48015;BME280;33780;51.034;7.120;2023-01-08T09:05:53;99574.41;;;10.45;81.01
48015;BME280;33780;51.034;7.120;2023-01-08T09:08:19;99570.88;;;10.45;81.12
48015;BME280;33780;51.034;7.120;2023-01-08T09:10:44;99571.56;;;10.47;81.26
48015;BME280;33780;51.034;7.120;2023-01-08T09:13:10;99560.84;;;10.47;81.28
48015;BME280;33780;51.034;7.120;2023-01-08T09:15:36;99561.69;;;10.47;81.18
48015;BME280;33780;51.034;7.120;2023-01-08T09:18:02;99551.84;;;10.48;81.00
48015;BME280;33780;51.034;7.120;2023-01-08T09:20:28;99552.66;;;10.48;81.38
48015;BME280;33780;51.034;7.120;2023-01-08T09:22:53;99554.50;;;10.48;80.92
48015;BME280;33780;51.034;7.120;2023-01-08T09:25:19;99551.50;;;10.51;81.03
48015;BME280;33780;51.034;7.120;2023-01-08T09:27:44;99555.84;;;10.52;81.33
48015;BME280;33780;51.034;7.120;2023-01-08T09:30:10;99554.69;;;10.54;81.01
48015;BME280;33780;51.034;7.120;2023-01-08T09:32:36;99554.53;;;10.56;81.24
48015;BME280;33780;51.034;7.120;2023-01-08T09:35:02;99553.38;;;10.58;81.38
48015;BME280;33780;51.034;7.120;2023-01-08T09:37:27;99558.59;;;10.60;80.87
48015;BME280;33780;51.034;7.120;2023-01-08T09:39:53;99555.75;;;10.62;80.64
48015;BME280;33780;51.034;7.120;2023-01-08T09:42:22;99553.75;;;10.64;81.01
48015;BME280;33780;51.034;7.120;2023-01-08T09:44:51;99556.09;;;10.67;80.58
48015;BME280;33780;51.034;7.120;2023-01-08T09:49:57;99549.75;;;10.76;80.77
48015;BME280;33780;51.034;7.120;2023-01-08T09:52:24;99544.94;;;10.79;80.36
48015;BME280;33780;51.034;7.120;2023-01-08T09:54:49;99549.13;;;10.82;80.43
48015;BME280;33780;51.034;7.120;2023-01-08T09:57:18;99541.78;;;10.84;80.75
48015;BME280;33780;51.034;7.120;2023-01-08T09:59:44;99550.31;;;10.87;80.41
48015;BME280;33780;51.034;7.120;2023-01-08T10:02:20;99543.97;;;10.88;80.32
48015;BME280;33780;51.034;7.120;2023-01-08T10:04:55;99537.59;;;10.89;80.16
48015;BME280;33780;51.034;7.120;2023-01-08T10:07:23;99532.25;;;10.89;80.09
48015;BME280;33780;51.034;7.120;2023-01-08T10:09:50;99529.75;;;10.88;80.00
48015;BME280;33780;51.034;7.120;2023-01-08T10:12:34;99529.91;;;10.86;79.79
48015;BME280;33780;51.034;7.120;2023-01-08T10:15:10;99527.41;;;10.85;79.92
48015;BME280;33780;51.034;7.120;2023-01-08T10:17:41;99527.41;;;10.85;79.57
48015;BME280;33780;51.034;7.120;2023-01-08T10:20:18;99521.38;;;10.83;79.63
48015;BME280;33780;51.034;7.120;2023-01-08T10:22:44;99514.34;;;10.82;79.69
48015;BME280;33780;51.034;7.120;2023-01-08T10:25:15;99514.50;;;10.80;79.67
48015;BME280;33780;51.034;7.120;2023-01-08T10:27:58;99502.31;;;10.78;79.81
48015;BME280;33780;51.034;7.120;2023-01-08T10:30:37;99503.28;;;10.77;79.82
48015;BME280;33780;51.034;7.120;2023-01-08T10:33:14;99497.91;;;10.77;79.79
48015;BME280;33780;51.034;7.120;2023-01-08T10:35:42;99489.06;;;10.76;79.68
48015;BME280;33780;51.034;7.120;2023-01-08T10:38:24;99481.88;;;10.77;79.57
48015;BME280;33780;51.034;7.120;2023-01-08T10:40:50;99475.69;;;10.76;79.66
48015;BME280;33780;51.034;7.120;2023-01-08T10:43:19;99479.06;;;10.78;79.63
48015;BME280;33780;51.034;7.120;2023-01-08T10:46:03;99481.22;;;10.83;79.90
48015;BME280;33780;51.034;7.120;2023-01-08T10:48:36;99475.38;;;10.87;79.94
48015;BME280;33780;51.034;7.120;2023-01-08T10:51:13;99463.50;;;10.90;79.69
48015;BME280;33780;51.034;7.120;2023-01-08T10:53:39;99464.00;;;10.94;79.55
48015;BME280;33780;51.034;7.120;2023-01-08T10:56:05;99463.53;;;10.98;79.64
48015;BME280;33780;51.034;7.120;2023-01-08T10:58:40;99454.34;;;11.01;79.32
48015;BME280;33780;51.034;7.120;2023-01-08T11:01:16;99453.16;;;11.03;79.60
48015;BME280;33780;51.034;7.120;2023-01-08T11:03:42;99452.66;;;11.08;79.45
48015;BME280;33780;51.034;7.120;2023-01-08T11:06:12;99433.41;;;11.12;79.08
48015;BME280;33780;51.034;7.120;2023-01-08T11:08:38;99429.41;;;11.16;79.12
48015;BME280;33780;51.034;7.120;2023-01-08T11:11:04;99428.91;;;11.21;78.68
48015;BME280;33780;51.034;7.120;2023-01-08T11:13:33;99422.53;;;11.22;78.39
48015;BME280;33780;51.034;7.120;2023-01-08T11:16:05;99425.88;;;11.24;78.71
48015;BME280;33780;51.034;7.120;2023-01-08T11:18:35;99414.16;;;11.25;78.08
48015;BME280;33780;51.034;7.120;2023-01-08T11:21:19;99416.50;;;11.28;78.33
48015;BME280;33780;51.034;7.120;2023-01-08T11:23:44;99414.50;;;11.30;78.02
48015;BME280;33780;51.034;7.120;2023-01-08T11:26:16;99409.81;;;11.32;77.49
48015;BME280;33780;51.034;7.120;2023-01-08T11:28:56;99399.78;;;11.34;77.72
48015;BME280;33780;51.034;7.120;2023-01-08T11:31:53;99407.66;;;11.36;77.42
48015;BME280;33780;51.034;7.120;2023-01-08T11:34:49;99402.13;;;11.37;77.21
48015;BME280;33780;51.034;7.120;2023-01-08T11:37:23;99398.44;;;11.38;77.01
48015;BME280;33780;51.034;7.120;2023-01-08T11:39:51;99384.03;;;11.39;76.33
48015;BME280;33780;51.034;7.120;2023-01-08T11:42:38;99388.88;;;11.44;76.80
48015;BME280;33780;51.034;7.120;2023-01-08T11:45:27;99379.66;;;11.46;76.76
48015;BME280;33780;51.034;7.120;2023-01-08T11:48:28;99376.66;;;11.49;76.82
48015;BME280;33780;51.034;7.120;2023-01-08T11:51:04;99375.66;;;11.50;76.42
48015;BME280;33780;51.034;7.120;2023-01-08T11:53:59;99370.94;;;11.53;76.42
48015;BME280;33780;51.034;7.120;2023-01-08T11:57:10;99357.38;;;11.54;76.34
48015;BME280;33780;51.034;7.120;2023-01-08T11:59:48;99360.06;;;11.54;76.52
48015;BME280;33780;51.034;7.120;2023-01-08T12:08:28;99349.34;;;11.54;76.76
48015;BME280;33780;51.034;7.120;2023-01-08T12:14:12;99347.19;;;11.49;76.75
48015;BME280;33780;51.034;7.120;2023-01-08T12:22:47;99344.50;;;11.41;76.95
48015;BME280;33780;51.034;7.120;2023-01-08T12:25:30;99344.84;;;11.38;76.95
48015;BME280;33780;51.034;7.120;2023-01-08T12:28:20;99348.06;;;11.34;77.68
48015;BME280;33780;51.034;7.120;2023-01-08T12:33:36;99342.88;;;11.32;77.89
48015;BME280;33780;51.034;7.120;2023-01-08T12:36:15;99339.19;;;11.33;78.42
48015;BME280;33780;51.034;7.120;2023-01-08T12:38:42;99333.81;;;11.33;78.54
48015;BME280;33780;51.034;7.120;2023-01-08T12:41:15;99329.47;;;11.32;78.25
48015;BME280;33780;51.034;7.120;2023-01-08T12:46:25;99336.69;;;11.32;78.79
48015;BME280;33780;51.034;7.120;2023-01-08T12:48:52;99339.50;;;11.30;78.58
48015;BME280;33780;51.034;7.120;2023-01-08T12:51:27;99337.00;;;11.29;78.77
48015;BME280;33780;51.034;7.120;2023-01-08T12:59:36;99318.09;;;11.22;78.15
48015;BME280;33780;51.034;7.120;2023-01-08T13:02:23;99318.28;;;11.20;78.06
48015;BME280;33780;51.034;7.120;2023-01-08T13:04:55;99320.97;;;11.20;78.39
48015;BME280;33780;51.034;7.120;2023-01-08T13:07:25;99323.63;;;11.20;78.47
48015;BME280;33780;51.034;7.120;2023-01-08T13:10:04;99325.31;;;11.22;78.76
48015;BME280;33780;51.034;7.120;2023-01-08T13:12:34;99311.91;;;11.22;78.61
48015;BME280;33780;51.034;7.120;2023-01-08T13:15:01;99316.09;;;11.24;78.37
48015;BME280;33780;51.034;7.120;2023-01-08T13:17:30;99314.06;;;11.26;78.59
48015;BME280;33780;51.034;7.120;2023-01-08T13:20:00;99309.56;;;11.27;78.25
48015;BME280;33780;51.034;7.120;2023-01-08T13:22:33;99302.34;;;11.27;78.39
48015;BME280;33780;51.034;7.120;2023-01-08T13:27:41;99308.53;;;11.28;78.16
48015;BME280;33780;51.034;7.120;2023-01-08T13:30:30;99306.88;;;11.27;78.00
48015;BME280;33780;51.034;7.120;2023-01-08T13:32:56;99304.19;;;11.27;77.74
48015;BME280;33780;51.034;7.120;2023-01-08T13:35:27;99302.53;;;11.26;77.60
48015;BME280;33780;51.034;7.120;2023-01-08T13:38:12;99296.34;;;11.25;77.96
48015;BME280;33780;51.034;7.120;2023-01-08T13:40:53;99283.94;;;11.24;77.71
48015;BME280;33780;51.034;7.120;2023-01-08T13:43:30;99283.94;;;11.24;77.14
48015;BME280;33780;51.034;7.120;2023-01-08T13:48:27;99282.28;;;11.23;76.88
48015;BME280;33780;51.034;7.120;2023-01-08T13:50:58;99276.94;;;11.23;76.92
48015;BME280;33780;51.034;7.120;2023-01-08T13:53:24;99276.94;;;11.23;76.76
48015;BME280;33780;51.034;7.120;2023-01-08T13:55:59;99279.59;;;11.23;76.82
48015;BME280;33780;51.034;7.120;2023-01-08T13:58:46;99280.44;;;11.24;76.67
48015;BME280;33780;51.034;7.120;2023-01-08T14:01:15;99271.41;;;11.25;76.47